sensor_id;sensor_type;location;lat;lon;timestamp;P1;durP1;ratioP1;P2;durP2;ratioP2
75854;SDS011;64502;59.976;30.316;2023-07-29T00:02:03;4.28;;;1.42;;
75854;SDS011;64502;59.976;30.316;2023-07-29T00:04:29;2.65;;;1.33;;
75854;SDS011;64502;59.976;30.316;2023-07-29T00:06:55;3.42;;;1.40;;
75854;SDS011;64502;59.976;30.316;2023-07-29T00:09:20;2.15;;;0.90;;
75854;SDS011;64502;59.976;30.316;2023-07-29T00:11:46;4.15;;;1.83;;
75854;SDS011;64502;59.976;30.316;2023-07-29T00:14:11;5.25;;;1.70;;
75854;SDS011;64502;59.976;30.316;2023-07-29T00:16:36;3.60;;;1.20;;
75854;SDS011;64502;59.976;30.316;2023-07-29T00:19:02;6.35;;;1.55;;
75854;SDS011;64502;59.976;30.316;2023-07-29T00:21:28;3.30;;;1.30;;
75854;SDS011;64502;59.976;30.316;2023-07-29T00:23:53;6.30;;;1.20;;
75854;SDS011;64502;59.976;30.316;2023-07-29T00:26:19;2.83;;;1.83;;
75854;SDS011;64502;59.976;30.316;2023-07-29T00:28:45;5.53;;;1.73;;
75854;SDS011;64502;59.976;30.316;2023-07-29T00:31:10;5.90;;;2.13;;
75854;SDS011;64502;59.976;30.316;2023-07-29T00:33:36;3.25;;;1.58;;
75854;SDS011;64502;59.976;30.316;2023-07-29T00:36:01;3.08;;;1.63;;
75854;SDS011;64502;59.976;30.316;2023-07-29T00:38:27;3.95;;;1.60;;
75854;SDS011;64502;59.976;30.316;2023-07-29T00:40:53;4.32;;;1.60;;
75854;SDS011;64502;59.976;30.316;2023-07-29T00:43:18;3.90;;;1.73;;
75854;SDS011;64502;59.976;30.316;2023-07-29T00:45:44;2.88;;;0.85;;
75854;SDS011;64502;59.976;30.316;2023-07-29T00:48:10;2.80;;;1.65;;
75854;SDS011;64502;59.976;30.316;2023-07-29T00:50:35;6.28;;;1.45;;
75854;SDS011;64502;59.976;30.316;2023-07-29T00:53:01;2.65;;;1.30;;
75854;SDS011;64502;59.976;30.316;2023-07-29T00:55:27;2.10;;;0.98;;
75854;SDS011;64502;59.976;30.316;2023-07-29T00:57:53;3.47;;;0.90;;
75854;SDS011;64502;59.976;30.316;2023-07-29T01:00:19;2.53;;;1.40;;
75854;SDS011;64502;59.976;30.316;2023-07-29T01:02:46;2.80;;;1.00;;
75854;SDS011;64502;59.976;30.316;2023-07-29T01:05:12;3.60;;;1.42;;
75854;SDS011;64502;59.976;30.316;2023-07-29T01:07:43;4.38;;;1.38;;
75854;SDS011;64502;59.976;30.316;2023-07-29T01:15:17;4.55;;;1.20;;
75854;SDS011;64502;59.976;30.316;2023-07-29T01:17:52;3.47;;;1.65;;
75854;SDS011;64502;59.976;30.316;2023-07-29T01:20:20;3.40;;;1.60;;
75854;SDS011;64502;59.976;30.316;2023-07-29T01:22:47;3.05;;;1.63;;
75854;SDS011;64502;59.976;30.316;2023-07-29T01:25:13;2.95;;;1.33;;
75854;SDS011;64502;59.976;30.316;2023-07-29T01:27:40;3.30;;;1.50;;
75854;SDS011;64502;59.976;30.316;2023-07-29T01:30:07;4.25;;;1.63;;
75854;SDS011;64502;59.976;30.316;2023-07-29T01:37:51;6.35;;;1.45;;
75854;SDS011;64502;59.976;30.316;2023-07-29T01:40:21;3.60;;;1.33;;
75854;SDS011;64502;59.976;30.316;2023-07-29T01:42:48;4.13;;;1.60;;
75854;SDS011;64502;59.976;30.316;2023-07-29T01:45:14;5.75;;;2.08;;
75854;SDS011;64502;59.976;30.316;2023-07-29T01:47:40;2.58;;;1.52;;
75854;SDS011;64502;59.976;30.316;2023-07-29T01:50:07;3.95;;;1.75;;
75854;SDS011;64502;59.976;30.316;2023-07-29T01:52:33;3.38;;;1.63;;
75854;SDS011;64502;59.976;30.316;2023-07-29T01:54:58;6.13;;;2.00;;
75854;SDS011;64502;59.976;30.316;2023-07-29T01:57:24;5.03;;;1.65;;
75854;SDS011;64502;59.976;30.316;2023-07-29T01:59:49;4.03;;;1.80;;
75854;SDS011;64502;59.976;30.316;2023-07-29T02:02:14;5.90;;;1.92;;
75854;SDS011;64502;59.976;30.316;2023-07-29T02:04:40;5.03;;;2.08;;
75854;SDS011;64502;59.976;30.316;2023-07-29T02:07:05;4.60;;;1.88;;
75854;SDS011;64502;59.976;30.316;2023-07-29T02:09:31;5.50;;;2.40;;
75854;SDS011;64502;59.976;30.316;2023-07-29T02:11:56;3.30;;;1.75;;
75854;SDS011;64502;59.976;30.316;2023-07-29T02:14:22;5.95;;;2.00;;
75854;SDS011;64502;59.976;30.316;2023-07-29T02:16:48;3.47;;;1.70;;
75854;SDS011;64502;59.976;30.316;2023-07-29T02:19:14;7.25;;;2.20;;
75854;SDS011;64502;59.976;30.316;2023-07-29T02:21:40;6.55;;;2.63;;
75854;SDS011;64502;59.976;30.316;2023-07-29T02:24:05;4.22;;;2.58;;
75854;SDS011;64502;59.976;30.316;2023-07-29T02:26:30;8.25;;;2.28;;
75854;SDS011;64502;59.976;30.316;2023-07-29T02:28:56;5.13;;;2.53;;
75854;SDS011;64502;59.976;30.316;2023-07-29T02:31:22;8.60;;;3.10;;
75854;SDS011;64502;59.976;30.316;2023-07-29T02:33:49;4.50;;;3.03;;
75854;SDS011;64502;59.976;30.316;2023-07-29T02:36:14;5.07;;;2.17;;
75854;SDS011;64502;59.976;30.316;2023-07-29T02:38:41;7.07;;;2.38;;
75854;SDS011;64502;59.976;30.316;2023-07-29T02:41:07;5.90;;;2.90;;
75854;SDS011;64502;59.976;30.316;2023-07-29T02:43:34;7.13;;;3.20;;
75854;SDS011;64502;59.976;30.316;2023-07-29T02:46:02;10.57;;;3.72;;
75854;SDS011;64502;59.976;30.316;2023-07-29T02:48:28;6.85;;;2.80;;
75854;SDS011;64502;59.976;30.316;2023-07-29T02:50:54;7.63;;;2.42;;
75854;SDS011;64502;59.976;30.316;2023-07-29T02:53:21;5.72;;;1.83;;
75854;SDS011;64502;59.976;30.316;2023-07-29T02:55:47;6.88;;;2.50;;
75854;SDS011;64502;59.976;30.316;2023-07-29T02:58:13;6.63;;;2.95;;
75854;SDS011;64502;59.976;30.316;2023-07-29T03:00:38;4.85;;;2.50;;
75854;SDS011;64502;59.976;30.316;2023-07-29T03:03:06;5.88;;;2.70;;
75854;SDS011;64502;59.976;30.316;2023-07-29T03:05:32;4.78;;;2.40;;
75854;SDS011;64502;59.976;30.316;2023-07-29T03:07:58;9.00;;;2.40;;
75854;SDS011;64502;59.976;30.316;2023-07-29T03:10:23;5.18;;;2.67;;
75854;SDS011;64502;59.976;30.316;2023-07-29T03:12:48;5.07;;;2.13;;
75854;SDS011;64502;59.976;30.316;2023-07-29T03:15:14;7.00;;;2.40;;
75854;SDS011;64502;59.976;30.316;2023-07-29T03:17:39;4.90;;;3.10;;
75854;SDS011;64502;59.976;30.316;2023-07-29T03:20:05;6.68;;;2.22;;
75854;SDS011;64502;59.976;30.316;2023-07-29T03:22:31;7.90;;;3.22;;
75854;SDS011;64502;59.976;30.316;2023-07-29T03:24:56;6.30;;;2.30;;
75854;SDS011;64502;59.976;30.316;2023-07-29T03:27:22;6.28;;;2.55;;
75854;SDS011;64502;59.976;30.316;2023-07-29T03:29:47;6.45;;;2.22;;
75854;SDS011;64502;59.976;30.316;2023-07-29T03:32:13;5.93;;;2.70;;
75854;SDS011;64502;59.976;30.316;2023-07-29T03:34:38;4.80;;;2.22;;
75854;SDS011;64502;59.976;30.316;2023-07-29T03:37:05;7.38;;;2.67;;
75854;SDS011;64502;59.976;30.316;2023-07-29T03:39:31;6.63;;;2.30;;
75854;SDS011;64502;59.976;30.316;2023-07-29T03:41:56;6.10;;;2.17;;
75854;SDS011;64502;59.976;30.316;2023-07-29T03:44:22;4.93;;;1.80;;
75854;SDS011;64502;59.976;30.316;2023-07-29T03:46:48;6.63;;;2.10;;
75854;SDS011;64502;59.976;30.316;2023-07-29T03:49:13;5.35;;;2.25;;
75854;SDS011;64502;59.976;30.316;2023-07-29T03:51:39;4.15;;;2.25;;
75854;SDS011;64502;59.976;30.316;2023-07-29T03:54:04;4.97;;;2.05;;
75854;SDS011;64502;59.976;30.316;2023-07-29T03:56:29;4.32;;;2.40;;
75854;SDS011;64502;59.976;30.316;2023-07-29T03:59:01;4.00;;;2.53;;
75854;SDS011;64502;59.976;30.316;2023-07-29T04:01:28;4.57;;;2.75;;
75854;SDS011;64502;59.976;30.316;2023-07-29T04:03:54;4.60;;;2.67;;
75854;SDS011;64502;59.976;30.316;2023-07-29T04:06:19;4.18;;;1.95;;
75854;SDS011;64502;59.976;30.316;2023-07-29T04:08:45;4.82;;;2.35;;
75854;SDS011;64502;59.976;30.316;2023-07-29T04:11:11;4.13;;;1.77;;
75854;SDS011;64502;59.976;30.316;2023-07-29T04:13:36;4.60;;;2.63;;
75854;SDS011;64502;59.976;30.316;2023-07-29T04:16:03;4.28;;;2.22;;
75854;SDS011;64502;59.976;30.316;2023-07-29T04:18:29;6.60;;;2.40;;
75854;SDS011;64502;59.976;30.316;2023-07-29T04:20:54;3.60;;;1.48;;
75854;SDS011;64502;59.976;30.316;2023-07-29T04:23:20;3.67;;;1.83;;
75854;SDS011;64502;59.976;30.316;2023-07-29T04:25:45;3.90;;;1.83;;
75854;SDS011;64502;59.976;30.316;2023-07-29T04:28:11;3.60;;;1.90;;
75854;SDS011;64502;59.976;30.316;2023-07-29T04:30:36;4.40;;;1.50;;
75854;SDS011;64502;59.976;30.316;2023-07-29T04:33:02;3.20;;;1.38;;
75854;SDS011;64502;59.976;30.316;2023-07-29T04:35:27;4.35;;;1.77;;
75854;SDS011;64502;59.976;30.316;2023-07-29T04:37:53;3.85;;;1.70;;
75854;SDS011;64502;59.976;30.316;2023-07-29T04:40:18;6.07;;;2.05;;
75854;SDS011;64502;59.976;30.316;2023-07-29T04:42:43;3.03;;;1.58;;
75854;SDS011;64502;59.976;30.316;2023-07-29T04:45:09;4.50;;;2.08;;
75854;SDS011;64502;59.976;30.316;2023-07-29T04:47:35;3.45;;;1.75;;
75854;SDS011;64502;59.976;30.316;2023-07-29T04:50:00;4.13;;;1.77;;
75854;SDS011;64502;59.976;30.316;2023-07-29T04:52:26;4.45;;;1.90;;
75854;SDS011;64502;59.976;30.316;2023-07-29T04:54:51;3.45;;;1.80;;
75854;SDS011;64502;59.976;30.316;2023-07-29T04:57:16;3.97;;;1.42;;
75854;SDS011;64502;59.976;30.316;2023-07-29T04:59:42;4.80;;;1.60;;
75854;SDS011;64502;59.976;30.316;2023-07-29T05:02:07;6.68;;;1.73;;
75854;SDS011;64502;59.976;30.316;2023-07-29T05:04:33;3.83;;;1.23;;
75854;SDS011;64502;59.976;30.316;2023-07-29T05:06:58;3.55;;;1.70;;
75854;SDS011;64502;59.976;30.316;2023-07-29T05:09:24;5.45;;;1.95;;
75854;SDS011;64502;59.976;30.316;2023-07-29T05:11:49;5.38;;;2.20;;
75854;SDS011;64502;59.976;30.316;2023-07-29T05:14:16;3.65;;;1.75;;
75854;SDS011;64502;59.976;30.316;2023-07-29T05:16:42;4.68;;;2.03;;
75854;SDS011;64502;59.976;30.316;2023-07-29T05:19:08;4.10;;;2.00;;
75854;SDS011;64502;59.976;30.316;2023-07-29T05:21:34;3.50;;;1.52;;
75854;SDS011;64502;59.976;30.316;2023-07-29T05:24:00;3.65;;;1.70;;
75854;SDS011;64502;59.976;30.316;2023-07-29T05:26:25;3.42;;;1.60;;
75854;SDS011;64502;59.976;30.316;2023-07-29T05:28:51;7.22;;;1.98;;
75854;SDS011;64502;59.976;30.316;2023-07-29T05:31:17;2.70;;;1.45;;
75854;SDS011;64502;59.976;30.316;2023-07-29T05:33:42;4.00;;;2.17;;
75854;SDS011;64502;59.976;30.316;2023-07-29T05:36:08;4.57;;;1.70;;
75854;SDS011;64502;59.976;30.316;2023-07-29T05:38:33;5.35;;;2.20;;
75854;SDS011;64502;59.976;30.316;2023-07-29T05:40:59;3.55;;;2.08;;
75854;SDS011;64502;59.976;30.316;2023-07-29T05:43:25;3.08;;;1.98;;
75854;SDS011;64502;59.976;30.316;2023-07-29T05:45:51;4.47;;;2.35;;
75854;SDS011;64502;59.976;30.316;2023-07-29T05:48:17;5.10;;;2.28;;
75854;SDS011;64502;59.976;30.316;2023-07-29T05:50:42;3.45;;;2.00;;
75854;SDS011;64502;59.976;30.316;2023-07-29T05:53:07;3.42;;;2.05;;
75854;SDS011;64502;59.976;30.316;2023-07-29T05:55:33;4.07;;;2.17;;
75854;SDS011;64502;59.976;30.316;2023-07-29T05:57:58;5.53;;;2.20;;
75854;SDS011;64502;59.976;30.316;2023-07-29T06:00:24;4.13;;;2.28;;
75854;SDS011;64502;59.976;30.316;2023-07-29T06:02:49;7.32;;;2.70;;
75854;SDS011;64502;59.976;30.316;2023-07-29T06:05:15;3.72;;;2.05;;
75854;SDS011;64502;59.976;30.316;2023-07-29T06:07:40;6.50;;;2.22;;
75854;SDS011;64502;59.976;30.316;2023-07-29T06:10:09;5.18;;;2.25;;
75854;SDS011;64502;59.976;30.316;2023-07-29T06:12:37;3.65;;;1.80;;
75854;SDS011;64502;59.976;30.316;2023-07-29T06:15:02;5.72;;;2.65;;
75854;SDS011;64502;59.976;30.316;2023-07-29T06:17:28;5.20;;;2.42;;
75854;SDS011;64502;59.976;30.316;2023-07-29T06:19:54;4.70;;;2.28;;
75854;SDS011;64502;59.976;30.316;2023-07-29T06:22:19;6.05;;;3.25;;
75854;SDS011;64502;59.976;30.316;2023-07-29T06:24:44;3.72;;;2.35;;
75854;SDS011;64502;59.976;30.316;2023-07-29T06:27:10;5.45;;;1.77;;
75854;SDS011;64502;59.976;30.316;2023-07-29T06:29:35;7.82;;;2.60;;
75854;SDS011;64502;59.976;30.316;2023-07-29T06:32:01;4.78;;;2.60;;
75854;SDS011;64502;59.976;30.316;2023-07-29T06:34:26;4.28;;;2.50;;
75854;SDS011;64502;59.976;30.316;2023-07-29T06:36:52;2.95;;;1.95;;
75854;SDS011;64502;59.976;30.316;2023-07-29T06:39:17;3.05;;;2.20;;
75854;SDS011;64502;59.976;30.316;2023-07-29T06:41:43;3.97;;;2.17;;
75854;SDS011;64502;59.976;30.316;2023-07-29T06:44:08;3.33;;;1.92;;
75854;SDS011;64502;59.976;30.316;2023-07-29T06:46:33;4.78;;;1.73;;
75854;SDS011;64502;59.976;30.316;2023-07-29T06:48:59;3.45;;;2.05;;
75854;SDS011;64502;59.976;30.316;2023-07-29T06:51:24;3.55;;;1.92;;
75854;SDS011;64502;59.976;30.316;2023-07-29T06:53:50;4.63;;;2.00;;
75854;SDS011;64502;59.976;30.316;2023-07-29T06:56:15;3.70;;;1.33;;
75854;SDS011;64502;59.976;30.316;2023-07-29T06:58:40;4.72;;;2.05;;
75854;SDS011;64502;59.976;30.316;2023-07-29T07:01:06;4.53;;;2.15;;
75854;SDS011;64502;59.976;30.316;2023-07-29T07:03:31;3.00;;;1.90;;
75854;SDS011;64502;59.976;30.316;2023-07-29T07:05:57;3.05;;;1.83;;
75854;SDS011;64502;59.976;30.316;2023-07-29T07:08:23;2.13;;;1.10;;
75854;SDS011;64502;59.976;30.316;2023-07-29T07:10:49;3.67;;;1.85;;
75854;SDS011;64502;59.976;30.316;2023-07-29T07:13:14;3.40;;;1.38;;
75854;SDS011;64502;59.976;30.316;2023-07-29T07:15:40;7.65;;;2.25;;
75854;SDS011;64502;59.976;30.316;2023-07-29T07:18:05;3.35;;;1.42;;
75854;SDS011;64502;59.976;30.316;2023-07-29T07:20:30;3.47;;;1.30;;
75854;SDS011;64502;59.976;30.316;2023-07-29T07:22:56;4.50;;;1.67;;
75854;SDS011;64502;59.976;30.316;2023-07-29T07:25:21;2.55;;;1.42;;
75854;SDS011;64502;59.976;30.316;2023-07-29T07:27:47;3.72;;;1.30;;
75854;SDS011;64502;59.976;30.316;2023-07-29T07:30:13;4.63;;;1.60;;
75854;SDS011;64502;59.976;30.316;2023-07-29T07:32:39;4.18;;;1.70;;
75854;SDS011;64502;59.976;30.316;2023-07-29T07:35:04;2.22;;;1.20;;
75854;SDS011;64502;59.976;30.316;2023-07-29T07:37:30;2.15;;;1.30;;
75854;SDS011;64502;59.976;30.316;2023-07-29T07:39:56;3.00;;;1.58;;
75854;SDS011;64502;59.976;30.316;2023-07-29T07:42:21;4.60;;;1.48;;
75854;SDS011;64502;59.976;30.316;2023-07-29T07:44:47;3.72;;;1.45;;
75854;SDS011;64502;59.976;30.316;2023-07-29T07:47:12;3.88;;;1.50;;
75854;SDS011;64502;59.976;30.316;2023-07-29T07:49:37;2.95;;;1.70;;
75854;SDS011;64502;59.976;30.316;2023-07-29T07:52:03;3.47;;;1.90;;
75854;SDS011;64502;59.976;30.316;2023-07-29T07:54:28;4.20;;;1.70;;
75854;SDS011;64502;59.976;30.316;2023-07-29T07:56:54;3.92;;;1.42;;
75854;SDS011;64502;59.976;30.316;2023-07-29T07:59:19;3.20;;;1.70;;
75854;SDS011;64502;59.976;30.316;2023-07-29T08:01:45;3.33;;;1.48;;
75854;SDS011;64502;59.976;30.316;2023-07-29T08:04:10;5.97;;;1.20;;
75854;SDS011;64502;59.976;30.316;2023-07-29T08:06:36;3.15;;;1.80;;
75854;SDS011;64502;59.976;30.316;2023-07-29T08:09:02;4.75;;;1.45;;
75854;SDS011;64502;59.976;30.316;2023-07-29T08:11:28;3.97;;;1.85;;
75854;SDS011;64502;59.976;30.316;2023-07-29T08:13:53;3.25;;;1.88;;
75854;SDS011;64502;59.976;30.316;2023-07-29T08:16:19;1.90;;;1.02;;
75854;SDS011;64502;59.976;30.316;2023-07-29T08:18:44;3.80;;;1.65;;
75854;SDS011;64502;59.976;30.316;2023-07-29T08:21:09;3.45;;;1.35;;
75854;SDS011;64502;59.976;30.316;2023-07-29T08:23:35;3.70;;;1.50;;
75854;SDS011;64502;59.976;30.316;2023-07-29T08:26:02;3.08;;;1.73;;
75854;SDS011;64502;59.976;30.316;2023-07-29T08:28:31;4.32;;;1.73;;
75854;SDS011;64502;59.976;30.316;2023-07-29T08:31:01;3.83;;;1.38;;
75854;SDS011;64502;59.976;30.316;2023-07-29T08:33:26;4.70;;;1.45;;
75854;SDS011;64502;59.976;30.316;2023-07-29T08:35:52;3.72;;;1.40;;
75854;SDS011;64502;59.976;30.316;2023-07-29T08:38:18;3.65;;;1.83;;
75854;SDS011;64502;59.976;30.316;2023-07-29T08:40:50;3.90;;;1.55;;
75854;SDS011;64502;59.976;30.316;2023-07-29T08:43:23;2.03;;;1.30;;
75854;SDS011;64502;59.976;30.316;2023-07-29T08:45:55;3.40;;;1.80;;
75854;SDS011;64502;59.976;30.316;2023-07-29T08:48:27;5.68;;;2.10;;
75854;SDS011;64502;59.976;30.316;2023-07-29T08:51:02;3.90;;;1.85;;
75854;SDS011;64502;59.976;30.316;2023-07-29T08:53:29;5.07;;;1.88;;
75854;SDS011;64502;59.976;30.316;2023-07-29T08:55:55;4.03;;;1.65;;
75854;SDS011;64502;59.976;30.316;2023-07-29T08:58:21;4.22;;;1.35;;
75854;SDS011;64502;59.976;30.316;2023-07-29T09:00:47;4.00;;;1.30;;
75854;SDS011;64502;59.976;30.316;2023-07-29T09:03:14;3.35;;;1.50;;
75854;SDS011;64502;59.976;30.316;2023-07-29T09:05:39;8.48;;;2.35;;
75854;SDS011;64502;59.976;30.316;2023-07-29T09:08:05;3.92;;;1.30;;
75854;SDS011;64502;59.976;30.316;2023-07-29T09:10:34;3.50;;;1.88;;
75854;SDS011;64502;59.976;30.316;2023-07-29T09:13:01;2.53;;;1.73;;
75854;SDS011;64502;59.976;30.316;2023-07-29T09:15:28;3.97;;;1.52;;
75854;SDS011;64502;59.976;30.316;2023-07-29T09:17:55;2.78;;;1.50;;
75854;SDS011;64502;59.976;30.316;2023-07-29T09:20:26;2.67;;;1.60;;
75854;SDS011;64502;59.976;30.316;2023-07-29T09:22:53;3.17;;;2.17;;
75854;SDS011;64502;59.976;30.316;2023-07-29T09:25:26;5.45;;;1.95;;
75854;SDS011;64502;59.976;30.316;2023-07-29T09:27:58;5.88;;;1.42;;
75854;SDS011;64502;59.976;30.316;2023-07-29T09:30:25;4.43;;;1.50;;
75854;SDS011;64502;59.976;30.316;2023-07-29T09:32:57;2.72;;;1.55;;
75854;SDS011;64502;59.976;30.316;2023-07-29T09:35:24;2.70;;;1.40;;
75854;SDS011;64502;59.976;30.316;2023-07-29T09:37:52;3.42;;;1.40;;
75854;SDS011;64502;59.976;30.316;2023-07-29T09:40:18;3.63;;;2.05;;
75854;SDS011;64502;59.976;30.316;2023-07-29T09:42:53;2.10;;;0.93;;
75854;SDS011;64502;59.976;30.316;2023-07-29T09:45:21;2.67;;;1.80;;
75854;SDS011;64502;59.976;30.316;2023-07-29T09:47:52;2.25;;;1.50;;
75854;SDS011;64502;59.976;30.316;2023-07-29T09:50:18;2.00;;;1.00;;
75854;SDS011;64502;59.976;30.316;2023-07-29T09:52:44;3.97;;;2.03;;
75854;SDS011;64502;59.976;30.316;2023-07-29T09:55:13;5.03;;;1.52;;
75854;SDS011;64502;59.976;30.316;2023-07-29T09:57:39;2.40;;;1.60;;
75854;SDS011;64502;59.976;30.316;2023-07-29T10:00:05;1.70;;;0.80;;
75854;SDS011;64502;59.976;30.316;2023-07-29T10:02:36;2.83;;;1.30;;
75854;SDS011;64502;59.976;30.316;2023-07-29T10:05:05;2.25;;;1.38;;
75854;SDS011;64502;59.976;30.316;2023-07-29T10:07:33;4.10;;;1.02;;
75854;SDS011;64502;59.976;30.316;2023-07-29T10:10:02;3.38;;;1.42;;
75854;SDS011;64502;59.976;30.316;2023-07-29T10:12:30;3.85;;;1.35;;
75854;SDS011;64502;59.976;30.316;2023-07-29T10:14:58;2.67;;;1.60;;
75854;SDS011;64502;59.976;30.316;2023-07-29T10:17:25;2.92;;;1.40;;
75854;SDS011;64502;59.976;30.316;2023-07-29T10:19:51;3.05;;;1.80;;
75854;SDS011;64502;59.976;30.316;2023-07-29T10:22:18;7.80;;;1.40;;
75854;SDS011;64502;59.976;30.316;2023-07-29T10:24:45;3.78;;;1.48;;
75854;SDS011;64502;59.976;30.316;2023-07-29T10:27:13;7.70;;;1.50;;
75854;SDS011;64502;59.976;30.316;2023-07-29T10:29:43;2.63;;;1.77;;
75854;SDS011;64502;59.976;30.316;2023-07-29T10:32:10;2.53;;;1.60;;
75854;SDS011;64502;59.976;30.316;2023-07-29T10:34:37;2.30;;;1.60;;
75854;SDS011;64502;59.976;30.316;2023-07-29T10:37:04;5.05;;;1.13;;
75854;SDS011;64502;59.976;30.316;2023-07-29T10:39:39;10.70;;;2.47;;
75854;SDS011;64502;59.976;30.316;2023-07-29T10:42:06;3.00;;;1.20;;
75854;SDS011;64502;59.976;30.316;2023-07-29T10:49:49;2.30;;;1.38;;
75854;SDS011;64502;59.976;30.316;2023-07-29T10:52:27;2.42;;;0.90;;
75854;SDS011;64502;59.976;30.316;2023-07-29T10:54:58;3.17;;;2.00;;
75854;SDS011;64502;59.976;30.316;2023-07-29T10:57:34;4.90;;;1.75;;
75854;SDS011;64502;59.976;30.316;2023-07-29T11:00:01;2.97;;;2.03;;
75854;SDS011;64502;59.976;30.316;2023-07-29T11:02:33;2.75;;;1.65;;
75854;SDS011;64502;59.976;30.316;2023-07-29T11:05:21;2.90;;;1.58;;
75854;SDS011;64502;59.976;30.316;2023-07-29T11:07:49;4.60;;;1.80;;
75854;SDS011;64502;59.976;30.316;2023-07-29T11:10:15;3.47;;;2.08;;
75854;SDS011;64502;59.976;30.316;2023-07-29T11:15:14;2.67;;;1.58;;
75854;SDS011;64502;59.976;30.316;2023-07-29T11:17:54;3.40;;;1.83;;
75854;SDS011;64502;59.976;30.316;2023-07-29T11:20:21;3.90;;;2.10;;
75854;SDS011;64502;59.976;30.316;2023-07-29T11:22:47;2.28;;;1.50;;
75854;SDS011;64502;59.976;30.316;2023-07-29T11:25:14;3.45;;;1.60;;
75854;SDS011;64502;59.976;30.316;2023-07-29T11:27:42;2.47;;;1.60;;
75854;SDS011;64502;59.976;30.316;2023-07-29T11:30:09;3.58;;;2.47;;
75854;SDS011;64502;59.976;30.316;2023-07-29T11:32:36;2.65;;;2.10;;
75854;SDS011;64502;59.976;30.316;2023-07-29T11:35:06;3.97;;;2.03;;
75854;SDS011;64502;59.976;30.316;2023-07-29T11:37:34;3.30;;;1.50;;
75854;SDS011;64502;59.976;30.316;2023-07-29T11:40:00;5.30;;;1.83;;
75854;SDS011;64502;59.976;30.316;2023-07-29T11:42:27;3.20;;;2.30;;
75854;SDS011;64502;59.976;30.316;2023-07-29T11:44:53;2.90;;;2.05;;
75854;SDS011;64502;59.976;30.316;2023-07-29T11:47:21;3.22;;;1.67;;
75854;SDS011;64502;59.976;30.316;2023-07-29T11:49:47;2.95;;;1.90;;
75854;SDS011;64502;59.976;30.316;2023-07-29T11:52:12;2.30;;;1.10;;
75854;SDS011;64502;59.976;30.316;2023-07-29T11:54:38;2.90;;;1.17;;
75854;SDS011;64502;59.976;30.316;2023-07-29T11:57:08;3.10;;;2.00;;
75854;SDS011;64502;59.976;30.316;2023-07-29T11:59:34;2.45;;;1.45;;
75854;SDS011;64502;59.976;30.316;2023-07-29T12:02:01;2.88;;;1.58;;
75854;SDS011;64502;59.976;30.316;2023-07-29T12:04:31;2.40;;;1.50;;
75854;SDS011;64502;59.976;30.316;2023-07-29T12:06:58;4.18;;;1.55;;
75854;SDS011;64502;59.976;30.316;2023-07-29T12:09:25;2.35;;;1.67;;
75854;SDS011;64502;59.976;30.316;2023-07-29T12:11:52;4.30;;;1.92;;
75854;SDS011;64502;59.976;30.316;2023-07-29T12:14:17;3.88;;;1.33;;
75854;SDS011;64502;59.976;30.316;2023-07-29T12:16:43;2.30;;;1.00;;
75854;SDS011;64502;59.976;30.316;2023-07-29T12:19:12;3.65;;;1.60;;
75854;SDS011;64502;59.976;30.316;2023-07-29T12:21:38;2.28;;;1.50;;
75854;SDS011;64502;59.976;30.316;2023-07-29T12:24:05;2.95;;;1.52;;
75854;SDS011;64502;59.976;30.316;2023-07-29T12:26:30;2.20;;;1.35;;
75854;SDS011;64502;59.976;30.316;2023-07-29T12:28:56;3.95;;;1.50;;
75854;SDS011;64502;59.976;30.316;2023-07-29T12:31:22;2.45;;;1.20;;
75854;SDS011;64502;59.976;30.316;2023-07-29T12:33:56;2.85;;;1.40;;
75854;SDS011;64502;59.976;30.316;2023-07-29T12:36:22;4.28;;;1.27;;
75854;SDS011;64502;59.976;30.316;2023-07-29T12:38:47;2.63;;;1.33;;
75854;SDS011;64502;59.976;30.316;2023-07-29T12:41:12;2.08;;;1.30;;
75854;SDS011;64502;59.976;30.316;2023-07-29T12:43:38;4.18;;;1.67;;
75854;SDS011;64502;59.976;30.316;2023-07-29T12:46:04;2.60;;;1.45;;
75854;SDS011;64502;59.976;30.316;2023-07-29T12:48:29;3.22;;;1.30;;
75854;SDS011;64502;59.976;30.316;2023-07-29T12:50:54;2.05;;;1.60;;
75854;SDS011;64502;59.976;30.316;2023-07-29T12:53:20;2.42;;;0.98;;
75854;SDS011;64502;59.976;30.316;2023-07-29T12:55:45;2.40;;;1.50;;
75854;SDS011;64502;59.976;30.316;2023-07-29T12:58:11;1.80;;;1.33;;
75854;SDS011;64502;59.976;30.316;2023-07-29T13:00:36;3.13;;;1.42;;
75854;SDS011;64502;59.976;30.316;2023-07-29T13:03:03;2.85;;;1.40;;
75854;SDS011;64502;59.976;30.316;2023-07-29T13:05:30;2.50;;;1.30;;
75854;SDS011;64502;59.976;30.316;2023-07-29T13:07:56;2.03;;;1.67;;
75854;SDS011;64502;59.976;30.316;2023-07-29T13:10:21;4.63;;;1.63;;
75854;SDS011;64502;59.976;30.316;2023-07-29T13:12:47;2.05;;;0.95;;
75854;SDS011;64502;59.976;30.316;2023-07-29T13:15:13;1.90;;;1.23;;
75854;SDS011;64502;59.976;30.316;2023-07-29T13:17:39;2.35;;;1.05;;
75854;SDS011;64502;59.976;30.316;2023-07-29T13:20:05;2.20;;;0.80;;
75854;SDS011;64502;59.976;30.316;2023-07-29T13:22:31;1.50;;;1.20;;
75854;SDS011;64502;59.976;30.316;2023-07-29T13:24:56;1.92;;;0.95;;
75854;SDS011;64502;59.976;30.316;2023-07-29T13:27:22;1.65;;;0.80;;
75854;SDS011;64502;59.976;30.316;2023-07-29T13:29:49;1.75;;;0.57;;
75854;SDS011;64502;59.976;30.316;2023-07-29T13:32:14;2.50;;;0.60;;
75854;SDS011;64502;59.976;30.316;2023-07-29T13:34:39;1.40;;;1.00;;
75854;SDS011;64502;59.976;30.316;2023-07-29T13:37:05;1.90;;;1.00;;
75854;SDS011;64502;59.976;30.316;2023-07-29T13:39:31;2.88;;;0.60;;
75854;SDS011;64502;59.976;30.316;2023-07-29T13:41:56;1.85;;;0.90;;
75854;SDS011;64502;59.976;30.316;2023-07-29T13:44:22;1.65;;;0.82;;
75854;SDS011;64502;59.976;30.316;2023-07-29T13:46:47;2.67;;;1.10;;
75854;SDS011;64502;59.976;30.316;2023-07-29T13:49:13;2.15;;;1.00;;
75854;SDS011;64502;59.976;30.316;2023-07-29T13:51:38;1.48;;;0.30;;
75854;SDS011;64502;59.976;30.316;2023-07-29T13:54:03;2.38;;;0.98;;
75854;SDS011;64502;59.976;30.316;2023-07-29T13:56:29;2.25;;;0.80;;
75854;SDS011;64502;59.976;30.316;2023-07-29T13:58:55;2.28;;;1.02;;
75854;SDS011;64502;59.976;30.316;2023-07-29T14:01:20;1.30;;;0.90;;
75854;SDS011;64502;59.976;30.316;2023-07-29T14:03:45;1.08;;;0.75;;
75854;SDS011;64502;59.976;30.316;2023-07-29T14:06:11;1.38;;;0.95;;
75854;SDS011;64502;59.976;30.316;2023-07-29T14:08:36;1.48;;;0.52;;
75854;SDS011;64502;59.976;30.316;2023-07-29T14:11:02;1.10;;;0.65;;
75854;SDS011;64502;59.976;30.316;2023-07-29T14:13:27;1.38;;;0.93;;
75854;SDS011;64502;59.976;30.316;2023-07-29T14:15:52;2.80;;;0.52;;
75854;SDS011;64502;59.976;30.316;2023-07-29T14:18:18;2.10;;;0.80;;
75854;SDS011;64502;59.976;30.316;2023-07-29T14:20:43;2.03;;;0.98;;
75854;SDS011;64502;59.976;30.316;2023-07-29T14:23:09;4.30;;;0.73;;
75854;SDS011;64502;59.976;30.316;2023-07-29T14:25:35;1.70;;;0.80;;
75854;SDS011;64502;59.976;30.316;2023-07-29T14:28:00;2.38;;;0.60;;
75854;SDS011;64502;59.976;30.316;2023-07-29T14:30:26;1.42;;;0.77;;
75854;SDS011;64502;59.976;30.316;2023-07-29T14:32:51;2.85;;;0.60;;
75854;SDS011;64502;59.976;30.316;2023-07-29T14:35:17;1.25;;;0.80;;
75854;SDS011;64502;59.976;30.316;2023-07-29T14:37:42;1.20;;;0.82;;
75854;SDS011;64502;59.976;30.316;2023-07-29T14:40:07;1.17;;;0.88;;
75854;SDS011;64502;59.976;30.316;2023-07-29T14:42:33;2.35;;;1.10;;
75854;SDS011;64502;59.976;30.316;2023-07-29T14:44:58;1.70;;;0.93;;
75854;SDS011;64502;59.976;30.316;2023-07-29T14:47:24;1.80;;;1.23;;